createdAt,value
2019-04-19T00:00:15.917Z,996.18
2019-04-19T00:01:14.115Z,996.16
2019-04-19T00:02:14.219Z,996.15
2019-04-19T00:03:17.651Z,996.14
2019-04-19T00:04:16.721Z,996.17
2019-04-19T00:05:13.147Z,996.14
2019-04-19T00:06:20.577Z,996.11
2019-04-19T00:07:18.630Z,996.13
2019-04-19T00:08:26.279Z,996.14
2019-04-19T00:09:26.288Z,996.15
2019-04-19T00:10:28.172Z,996.12
2019-04-19T00:11:21.176Z,996.17
2019-04-19T00:12:25.068Z,996.14
2019-04-19T00:13:11.585Z,996.13
2019-04-19T00:14:12.634Z,996.13
2019-04-19T00:15:11.793Z,996.12
2019-04-19T00:16:11.479Z,996.14
2019-04-19T00:17:14.796Z,996.13
2019-04-19T00:18:15.377Z,996.14
2019-04-19T00:19:34.195Z,996.15
2019-04-19T00:20:32.688Z,996.13
2019-04-19T00:21:30.389Z,996.13
2019-04-19T00:22:27.415Z,996.13
2019-04-19T00:23:21.429Z,996.15
2019-04-19T00:24:12.124Z,996.13
2019-04-19T00:25:11.407Z,996.13
2019-04-19T00:26:11.065Z,996.16
2019-04-19T00:27:11.808Z,996.12
2019-04-19T00:28:12.986Z,996.11
2019-04-19T00:29:20.188Z,996.15
2019-04-19T00:30:24.136Z,996.12
2019-04-19T00:31:20.271Z,996.11
2019-04-19T00:32:24.197Z,996.09
2019-04-19T00:33:21.213Z,996.09
2019-04-19T00:34:10.766Z,996.12
2019-04-19T00:35:11.630Z,996.08
2019-04-19T00:36:13.092Z,996.11
2019-04-19T00:37:11.941Z,996.13
2019-04-19T00:38:14.497Z,996.13
2019-04-19T00:39:23.722Z,996.18
2019-04-19T00:40:28.456Z,996.15
2019-04-19T00:41:28.168Z,996.19
2019-04-19T00:43:32.555Z,996.19
2019-04-19T00:44:45.563Z,996.17
2019-04-19T00:45:26.466Z,996.17
2019-04-19T00:46:24.785Z,996.20
2019-04-19T00:47:30.239Z,996.17
2019-04-19T00:48:29.792Z,996.18
2019-04-19T00:49:21.960Z,996.21
2019-04-19T00:50:18.533Z,996.19
2019-04-19T00:51:20.624Z,996.20
2019-04-19T00:52:31.484Z,996.23
2019-04-19T00:53:58.752Z,996.20
2019-04-19T00:54:18.037Z,996.22
2019-04-19T00:55:16.582Z,996.16
2019-04-19T00:56:18.117Z,996.22
2019-04-19T00:57:20.439Z,996.20
2019-04-19T00:58:16.401Z,996.22
2019-04-19T00:59:13.273Z,996.21
2019-04-19T01:00:12.927Z,996.23
2019-04-19T01:01:13.476Z,996.22
2019-04-19T01:02:15.108Z,996.19
2019-04-19T01:03:11.826Z,996.26
2019-04-19T01:04:14.583Z,996.25
2019-04-19T01:05:13.680Z,996.27
2019-04-19T01:06:14.264Z,996.21
2019-04-19T01:07:13.331Z,996.28
2019-04-19T01:08:14.019Z,996.27
2019-04-19T01:09:25.657Z,996.26
2019-04-19T01:10:24.810Z,996.23
2019-04-19T01:11:25.891Z,996.30
2019-04-19T01:12:20.682Z,996.27
2019-04-19T01:13:18.114Z,996.31
2019-04-19T01:14:21.572Z,996.30
2019-04-19T01:15:18.758Z,996.33
2019-04-19T01:16:23.136Z,996.28
2019-04-19T01:17:23.050Z,996.31
2019-04-19T01:18:21.388Z,996.29
2019-04-19T01:19:12.558Z,996.28
2019-04-19T01:20:11.082Z,996.25
2019-04-19T01:21:09.174Z,996.28
2019-04-19T01:22:13.786Z,996.29
2019-04-19T01:23:12.247Z,996.27
2019-04-19T01:24:09.719Z,996.34
2019-04-19T01:25:15.712Z,996.28
2019-04-19T01:26:12.253Z,996.31
2019-04-19T01:27:08.880Z,996.32
2019-04-19T01:28:13.964Z,996.34
2019-04-19T01:29:12.065Z,996.32
2019-04-19T01:30:08.487Z,996.33
2019-04-19T01:31:13.532Z,996.29
2019-04-19T01:32:13.292Z,996.34
2019-04-19T01:33:08.601Z,996.36
2019-04-19T01:34:13.866Z,996.40
2019-04-19T01:35:12.300Z,996.39
2019-04-19T01:36:08.342Z,996.40
2019-04-19T01:37:11.285Z,996.40
2019-04-19T01:38:10.120Z,996.39
2019-04-19T01:39:22.179Z,996.36
2019-04-19T01:40:21.295Z,996.35
2019-04-19T01:41:20.793Z,996.38
2019-04-19T01:42:26.376Z,996.38
2019-04-19T01:43:27.820Z,996.37
2019-04-19T01:44:27.737Z,996.37
2019-04-19T01:45:20.035Z,996.41
2019-04-19T01:46:24.236Z,996.43
2019-04-19T01:47:30.546Z,996.45
2019-04-19T01:48:29.708Z,996.42
2019-04-19T01:49:19.261Z,996.40
2019-04-19T01:50:17.064Z,996.40
2019-04-19T01:51:20.331Z,996.42
2019-04-19T01:52:36.740Z,996.42
2019-04-19T01:53:24.330Z,996.43
2019-04-19T01:54:28.332Z,996.45
2019-04-19T01:55:16.825Z,996.40
2019-04-19T01:56:12.150Z,996.43
2019-04-19T01:57:10.728Z,996.40
2019-04-19T01:58:13.986Z,996.45
2019-04-19T01:59:07.847Z,996.44
2019-04-19T02:00:10.332Z,996.47
2019-04-19T02:01:12.494Z,996.44
2019-04-19T02:02:12.624Z,996.48
2019-04-19T02:03:09.176Z,996.50
2019-04-19T02:04:12.178Z,996.46
2019-04-19T02:05:12.303Z,996.51
2019-04-19T02:06:11.131Z,996.51
2019-04-19T02:07:13.473Z,996.50
2019-04-19T02:08:10.181Z,996.51
2019-04-19T02:09:07.018Z,996.51
2019-04-19T02:10:18.615Z,996.54
2019-04-19T02:11:18.795Z,996.49
2019-04-19T02:12:22.482Z,996.54
2019-04-19T02:13:16.999Z,996.51
2019-04-19T02:14:13.579Z,996.51
2019-04-19T02:15:11.700Z,996.50
2019-04-19T02:16:12.920Z,996.52
2019-04-19T02:17:10.285Z,996.49
2019-04-19T02:18:07.163Z,996.51
2019-04-19T02:19:12.360Z,996.52
2019-04-19T02:20:10.040Z,996.54
2019-04-19T02:21:06.773Z,996.53
2019-04-19T02:22:13.044Z,996.52
2019-04-19T02:23:10.889Z,996.53
2019-04-19T02:24:07.153Z,996.50
2019-04-19T02:25:12.666Z,996.50
2019-04-19T02:26:12.172Z,996.50
2019-04-19T02:27:09.412Z,996.50
2019-04-19T02:28:08.960Z,996.45
2019-04-19T02:29:10.936Z,996.51
2019-04-19T02:30:15.839Z,996.53
2019-04-19T02:31:27.660Z,996.49
2019-04-19T02:32:24.498Z,996.52
2019-04-19T02:33:29.387Z,996.49
2019-04-19T02:34:37.116Z,996.49
2019-04-19T02:35:29.140Z,996.52
2019-04-19T02:36:35.667Z,996.54
2019-04-19T02:37:47.450Z,996.58
2019-04-19T02:38:36.399Z,996.56
2019-04-19T02:39:38.707Z,996.59
2019-04-19T02:41:34.812Z,996.59
2019-04-19T02:42:40.699Z,996.59
2019-04-19T02:43:36.179Z,996.59
2019-04-19T02:44:41.312Z,996.61
2019-04-19T02:45:33.017Z,996.62
2019-04-19T02:46:50.182Z,996.59
2019-04-19T02:47:40.394Z,996.57
2019-04-19T02:48:39.218Z,996.61
2019-04-19T02:49:35.934Z,996.61
2019-04-19T02:50:53.195Z,996.59
2019-04-19T02:51:33.124Z,996.60
2019-04-19T02:53:29.933Z,996.61
2019-04-19T02:54:34.726Z,996.63
2019-04-19T02:55:29.974Z,996.63
2019-04-19T02:56:44.532Z,996.65
2019-04-19T02:57:37.152Z,996.66
2019-04-19T02:58:48.744Z,996.62
2019-04-19T02:59:41.432Z,996.66
2019-04-19T03:00:37.785Z,996.66
2019-04-19T03:01:40.162Z,996.63
2019-04-19T03:02:42.388Z,996.64
2019-04-19T03:05:27.376Z,996.70
2019-04-19T03:06:18.770Z,996.68
2019-04-19T03:07:07.491Z,996.72
2019-04-19T03:08:04.545Z,996.71
2019-04-19T03:09:05.089Z,996.70
2019-04-19T03:10:11.063Z,996.73
2019-04-19T03:11:11.820Z,996.72
2019-04-19T03:12:22.961Z,996.69
2019-04-19T03:13:21.695Z,996.68
2019-04-19T03:14:18.225Z,996.70
2019-04-19T03:15:13.859Z,996.72
2019-04-19T03:16:29.558Z,996.75
2019-04-19T03:17:23.274Z,996.75
2019-04-19T03:19:13.420Z,996.71
2019-04-19T03:20:24.690Z,996.73
2019-04-19T03:21:20.701Z,996.75
2019-04-19T03:22:23.249Z,996.77
2019-04-19T03:23:17.883Z,996.78
2019-04-19T03:24:21.065Z,996.80
2019-04-19T03:25:18.325Z,996.85
2019-04-19T03:26:19.601Z,996.81
2019-04-19T03:27:13.703Z,996.76
2019-04-19T03:28:17.359Z,996.80
2019-04-19T03:29:14.801Z,996.77
2019-04-19T03:30:27.227Z,996.79
2019-04-19T03:31:34.530Z,996.80
2019-04-19T03:32:55.712Z,996.81
2019-04-19T03:33:29.037Z,996.77
2019-04-19T03:34:36.805Z,996.77
2019-04-19T03:35:14.420Z,996.77
2019-04-19T03:36:22.019Z,996.78
2019-04-19T03:37:27.994Z,996.79
2019-04-19T03:38:28.304Z,996.76
2019-04-19T03:39:23.161Z,996.75
2019-04-19T03:40:23.454Z,996.76
2019-04-19T03:41:29.279Z,996.77
2019-04-19T03:42:21.559Z,996.77
2019-04-19T03:43:26.533Z,996.78
2019-04-19T03:44:23.382Z,996.80
2019-04-19T03:45:18.052Z,996.78
2019-04-19T03:46:45.982Z,996.82
2019-04-19T03:47:24.397Z,996.81
2019-04-19T03:48:25.889Z,996.88
2019-04-19T03:49:30.648Z,996.84
2019-04-19T03:50:20.364Z,996.88
2019-04-19T03:51:18.390Z,996.88
2019-04-19T03:52:20.360Z,996.87
2019-04-19T03:53:20.292Z,996.89
2019-04-19T03:54:17.562Z,996.89
2019-04-19T03:55:21.418Z,996.91
2019-04-19T03:56:27.866Z,996.92
2019-04-19T03:57:15.509Z,996.94
2019-04-19T03:58:07.903Z,996.97
2019-04-19T03:59:02.836Z,996.92
2019-04-19T04:00:02.735Z,996.96
2019-04-19T04:01:02.581Z,996.97
2019-04-19T04:02:02.960Z,996.95
2019-04-19T04:03:10.390Z,996.97
2019-04-19T04:04:08.758Z,996.99
2019-04-19T04:05:07.521Z,996.92
2019-04-19T04:06:02.103Z,996.96
2019-04-19T04:07:07.711Z,996.99
2019-04-19T04:08:09.142Z,997.01
2019-04-19T04:09:05.836Z,997.02
2019-04-19T04:10:04.189Z,997.01
2019-04-19T04:11:09.596Z,997.07
2019-04-19T04:12:18.585Z,997.09
2019-04-19T04:13:16.930Z,997.14
2019-04-19T04:14:18.199Z,997.14
2019-04-19T04:15:14.544Z,997.14
2019-04-19T04:16:11.599Z,997.16
2019-04-19T04:17:02.078Z,997.22
2019-04-19T04:18:02.720Z,997.24
2019-04-19T04:19:01.719Z,997.22
2019-04-19T04:20:01.510Z,997.25
2019-04-19T04:21:02.681Z,997.23
2019-04-19T04:22:02.762Z,997.24
2019-04-19T04:23:07.315Z,997.24
2019-04-19T04:24:13.185Z,997.25
2019-04-19T04:25:11.254Z,997.24
2019-04-19T04:26:08.280Z,997.24
2019-04-19T04:27:09.766Z,997.25
2019-04-19T04:28:10.441Z,997.29
2019-04-19T04:29:07.732Z,997.28
2019-04-19T04:30:13.033Z,997.35
2019-04-19T04:31:13.397Z,997.31
2019-04-19T04:32:11.465Z,997.32
2019-04-19T04:33:10.393Z,997.35
2019-04-19T04:34:10.111Z,997.34
2019-04-19T04:35:19.609Z,997.30
2019-04-19T04:36:23.499Z,997.36
2019-04-19T04:37:16.540Z,997.35
2019-04-19T04:38:09.238Z,997.36
2019-04-19T04:39:00.864Z,997.36
2019-04-19T04:40:02.167Z,997.36
2019-04-19T04:41:07.864Z,997.33
2019-04-19T04:42:11.299Z,997.35
2019-04-19T04:43:15.044Z,997.35
2019-04-19T04:44:20.226Z,997.39
2019-04-19T04:45:25.689Z,997.38
2019-04-19T04:46:21.021Z,997.38
2019-04-19T04:47:19.313Z,997.40
2019-04-19T04:48:20.302Z,997.39
2019-04-19T04:49:30.613Z,997.40
2019-04-19T04:50:25.776Z,997.42
2019-04-19T04:51:19.598Z,997.42
2019-04-19T04:52:09.702Z,997.46
2019-04-19T04:53:01.515Z,997.46
2019-04-19T04:54:00.120Z,997.50
2019-04-19T04:55:00.987Z,997.47
2019-04-19T04:56:02.833Z,997.48
2019-04-19T04:57:08.643Z,997.49
2019-04-19T04:58:03.682Z,997.48
2019-04-19T04:59:09.858Z,997.51
2019-04-19T05:00:02.714Z,997.46
2019-04-19T05:01:05.822Z,997.52
2019-04-19T05:02:08.405Z,997.52
2019-04-19T05:03:13.740Z,997.52
2019-04-19T05:04:15.198Z,997.55
2019-04-19T05:05:21.948Z,997.56
2019-04-19T05:06:17.700Z,997.63
2019-04-19T05:07:24.398Z,997.62
2019-04-19T05:08:21.535Z,997.58
2019-04-19T05:09:23.863Z,997.61
2019-04-19T05:10:14.763Z,997.62
2019-04-19T05:11:16.796Z,997.64
2019-04-19T05:12:18.244Z,997.63
2019-04-19T05:13:20.017Z,997.63
2019-04-19T05:14:17.612Z,997.63
2019-04-19T05:15:20.045Z,997.61
2019-04-19T05:16:27.108Z,997.66
2019-04-19T05:17:33.464Z,997.64
2019-04-19T05:18:21.202Z,997.66
2019-04-19T05:19:20.969Z,997.64
2019-04-19T05:20:18.262Z,997.65
2019-04-19T05:21:20.193Z,997.69
2019-04-19T05:22:15.786Z,997.65
2019-04-19T05:23:14.223Z,997.64
2019-04-19T05:24:21.118Z,997.64
2019-04-19T05:25:27.304Z,997.64
2019-04-19T05:26:29.249Z,997.64
2019-04-19T05:27:20.520Z,997.66
2019-04-19T05:28:20.229Z,997.65
2019-04-19T05:29:10.738Z,997.65
2019-04-19T05:29:59.878Z,997.65
2019-04-19T05:31:03.546Z,997.62
2019-04-19T05:32:09.275Z,997.61
2019-04-19T05:33:09.899Z,997.62
2019-04-19T05:34:21.676Z,997.64
2019-04-19T05:35:12.405Z,997.66
2019-04-19T05:36:18.323Z,997.67
2019-04-19T05:37:14.064Z,997.64
2019-04-19T05:38:13.667Z,997.65
2019-04-19T05:39:17.428Z,997.63
2019-04-19T05:40:16.595Z,997.65
2019-04-19T05:41:08.198Z,997.68
2019-04-19T05:42:10.725Z,997.69
2019-04-19T05:43:33.188Z,997.68
2019-04-19T05:44:23.388Z,997.70
2019-04-19T05:46:21.497Z,997.70
2019-04-19T05:47:15.600Z,997.71
2019-04-19T05:48:08.192Z,997.71
2019-04-19T05:49:17.620Z,997.73
2019-04-19T05:50:23.920Z,997.72
2019-04-19T05:51:19.556Z,997.69
2019-04-19T05:52:19.085Z,997.72
2019-04-19T05:53:10.224Z,997.70
2019-04-19T05:54:04.802Z,997.71
2019-04-19T05:54:58.251Z,997.68
2019-04-19T05:55:58.641Z,997.70
2019-04-19T05:57:09.779Z,997.66
2019-04-19T05:59:08.259Z,997.66
2019-04-19T06:00:03.523Z,997.69
2019-04-19T06:01:09.141Z,997.70
2019-04-19T06:02:10.355Z,997.69
2019-04-19T06:03:09.265Z,997.72
2019-04-19T06:04:19.791Z,997.72
2019-04-19T06:05:36.456Z,997.70
2019-04-19T06:06:19.975Z,997.73
2019-04-19T06:07:18.871Z,997.73
2019-04-19T06:08:07.798Z,997.74
2019-04-19T06:08:58.268Z,997.74
2019-04-19T06:09:58.095Z,997.73
2019-04-19T06:11:00.955Z,997.73
2019-04-19T06:11:58.101Z,997.74
2019-04-19T06:13:02.830Z,997.74
2019-04-19T06:14:20.213Z,997.73
2019-04-19T06:15:19.055Z,997.72
2019-04-19T06:16:16.564Z,997.74
2019-04-19T06:17:08.831Z,997.72
2019-04-19T06:18:13.294Z,997.74
2019-04-19T06:19:17.030Z,997.75
2019-04-19T06:20:16.304Z,997.73
2019-04-19T06:21:19.655Z,997.74
2019-04-19T06:22:08.993Z,997.72
2019-04-19T06:23:13.517Z,997.77
2019-04-19T06:24:17.979Z,997.73
2019-04-19T06:25:12.221Z,997.70
2019-04-19T06:26:49.360Z,997.72
2019-04-19T06:27:18.213Z,997.75
2019-04-19T06:28:26.038Z,997.76
2019-04-19T06:29:17.397Z,997.75
2019-04-19T06:30:20.344Z,997.79
2019-04-19T06:31:21.706Z,997.77
2019-04-19T06:32:23.757Z,997.77
2019-04-19T06:33:19.757Z,997.76
2019-04-19T06:34:17.650Z,997.81
2019-04-19T06:35:11.639Z,997.81
2019-04-19T06:36:00.872Z,997.80
2019-04-19T06:37:04.624Z,997.81
2019-04-19T06:37:56.871Z,997.81
2019-04-19T06:38:57.115Z,997.81
2019-04-19T06:40:06.078Z,997.83
2019-04-19T06:41:01.999Z,997.83
2019-04-19T06:42:02.666Z,997.79
2019-04-19T06:43:04.913Z,997.83
2019-04-19T06:44:08.993Z,997.81
2019-04-19T06:45:16.505Z,997.80
2019-04-19T06:46:10.596Z,997.80
2019-04-19T06:47:08.626Z,997.79
2019-04-19T06:48:04.830Z,997.82
2019-04-19T06:49:03.038Z,997.76
2019-04-19T06:49:57.209Z,997.79
2019-04-19T06:50:59.330Z,997.83
2019-04-19T06:52:05.708Z,997.81
2019-04-19T06:52:55.529Z,997.82
2019-04-19T06:54:02.498Z,997.87
2019-04-19T06:54:55.801Z,997.84
2019-04-19T06:56:07.982Z,997.89
2019-04-19T06:57:08.596Z,997.84
2019-04-19T06:58:04.854Z,997.90
2019-04-19T06:59:08.148Z,997.91
2019-04-19T07:00:10.483Z,997.93
2019-04-19T07:01:10.725Z,997.94
2019-04-19T07:01:58.764Z,997.93
2019-04-19T07:02:56.208Z,997.97
2019-04-19T07:03:55.820Z,997.93
2019-04-19T07:05:12.464Z,997.98
2019-04-19T07:06:14.551Z,997.98
2019-04-19T07:07:16.496Z,997.99
2019-04-19T07:08:41.002Z,997.99
2019-04-19T07:09:21.292Z,997.97
2019-04-19T07:10:24.897Z,998.00
2019-04-19T07:11:16.402Z,998.01
2019-04-19T07:12:21.028Z,998.02
2019-04-19T07:13:10.838Z,998.08
2019-04-19T07:14:04.994Z,998.07
2019-04-19T07:15:23.777Z,998.02
2019-04-19T07:16:19.317Z,997.99
2019-04-19T07:17:10.818Z,998.09
2019-04-19T07:18:11.889Z,998.05
2019-04-19T07:19:15.508Z,998.08
2019-04-19T07:20:12.273Z,998.08
2019-04-19T07:21:16.442Z,998.14
2019-04-19T07:22:09.711Z,998.11
2019-04-19T07:23:06.863Z,998.10
2019-04-19T07:24:27.363Z,998.12
2019-04-19T07:25:20.136Z,998.14
2019-04-19T07:26:15.209Z,998.10
2019-04-19T07:27:12.401Z,998.11
2019-04-19T07:28:03.888Z,998.11
2019-04-19T07:28:55.669Z,998.15
2019-04-19T07:29:58.490Z,998.14
2019-04-19T07:30:59.094Z,998.14
2019-04-19T07:31:55.635Z,998.13
2019-04-19T07:33:02.462Z,998.14
2019-04-19T07:34:07.275Z,998.14
2019-04-19T07:35:10.491Z,998.17
2019-04-19T07:36:11.989Z,998.17
2019-04-19T07:37:14.666Z,998.22
2019-04-19T07:38:24.012Z,998.20
2019-04-19T07:39:17.041Z,998.18
2019-04-19T07:40:17.816Z,998.21
2019-04-19T07:42:20.298Z,998.21
2019-04-19T07:43:10.576Z,998.24
2019-04-19T07:44:09.013Z,998.26
2019-04-19T07:45:00.250Z,998.22
2019-04-19T07:46:15.287Z,998.27
2019-04-19T07:47:11.375Z,998.25
2019-04-19T07:48:00.789Z,998.23
2019-04-19T07:48:55.346Z,998.28
2019-04-19T07:50:03.970Z,998.24
2019-04-19T07:51:02.415Z,998.22
2019-04-19T07:52:04.597Z,998.26
2019-04-19T07:52:58.604Z,998.26
2019-04-19T07:53:55.281Z,998.26
2019-04-19T07:55:00.280Z,998.26
2019-04-19T07:56:07.880Z,998.29
2019-04-19T07:57:09.910Z,998.28
2019-04-19T07:58:38.248Z,998.29
2019-04-19T07:59:18.000Z,998.28
2019-04-19T08:00:18.535Z,998.26
2019-04-19T08:01:25.913Z,998.31
2019-04-19T08:02:26.641Z,998.30
2019-04-19T08:03:27.931Z,998.29
2019-04-19T08:06:21.367Z,998.32
2019-04-19T08:08:37.285Z,998.36
2019-04-19T08:10:18.928Z,998.38
2019-04-19T08:12:19.006Z,998.36
2019-04-19T08:13:31.641Z,998.41
2019-04-19T08:14:35.833Z,998.35
2019-04-19T08:18:26.132Z,998.35
2019-04-19T08:28:08.551Z,998.37
2019-04-19T08:29:07.241Z,998.33
2019-04-19T08:30:00.101Z,998.34
2019-04-19T08:30:58.331Z,998.36
2019-04-19T08:31:53.393Z,998.37
2019-04-19T08:32:53.543Z,998.39
2019-04-19T08:33:53.205Z,998.41
2019-04-19T08:34:58.579Z,998.43
2019-04-19T08:35:57.089Z,998.41
2019-04-19T08:36:59.432Z,998.42
2019-04-19T08:38:02.472Z,998.48
2019-04-19T08:39:13.942Z,998.44
2019-04-19T08:40:15.528Z,998.42
2019-04-19T08:41:08.343Z,998.45
2019-04-19T08:42:28.593Z,998.45
2019-04-19T08:43:13.789Z,998.44
2019-04-19T08:44:11.414Z,998.41
2019-04-19T08:45:00.879Z,998.44
2019-04-19T08:45:53.122Z,998.43
2019-04-19T08:46:53.590Z,998.43
2019-04-19T08:48:02.630Z,998.44
2019-04-19T08:48:56.286Z,998.46
2019-04-19T08:49:53.355Z,998.43
2019-04-19T08:50:55.046Z,998.42
2019-04-19T08:51:53.749Z,998.38
2019-04-19T08:52:59.252Z,998.48
2019-04-19T08:54:10.368Z,998.45
2019-04-19T08:55:14.378Z,998.48
2019-04-19T08:56:08.051Z,998.46
2019-04-19T08:57:01.127Z,998.47
2019-04-19T08:58:00.005Z,998.42
2019-04-19T08:59:15.601Z,998.40
2019-04-19T09:00:17.238Z,998.41
2019-04-19T09:01:15.215Z,998.42
2019-04-19T09:02:12.542Z,998.43
2019-04-19T09:03:05.025Z,998.41
2019-04-19T09:04:13.623Z,998.40
2019-04-19T09:05:09.070Z,998.40
2019-04-19T09:06:49.888Z,998.40
2019-04-19T09:08:10.213Z,998.38
2019-04-19T09:09:08.285Z,998.37
2019-04-19T09:11:11.274Z,998.41
2019-04-19T09:12:10.524Z,998.36
2019-04-19T09:13:22.186Z,998.42
2019-04-19T09:14:10.866Z,998.37
2019-04-19T09:17:12.902Z,998.34
2019-04-19T09:18:35.055Z,998.35
2019-04-19T09:21:05.126Z,998.39
2019-04-19T09:23:26.075Z,998.32
2019-04-19T09:24:17.062Z,998.33
2019-04-19T09:26:25.436Z,998.32
2019-04-19T09:27:31.760Z,998.33
2019-04-19T09:28:30.956Z,998.35
2019-04-19T09:29:29.787Z,998.35
2019-04-19T09:30:31.954Z,998.36
2019-04-19T09:33:08.622Z,998.33
2019-04-19T09:34:03.860Z,998.30
2019-04-19T09:35:19.239Z,998.29
2019-04-19T09:37:23.926Z,998.24
2019-04-19T09:40:03.118Z,998.27
2019-04-19T09:41:17.512Z,998.26
2019-04-19T09:43:21.505Z,998.22
2019-04-19T09:44:05.729Z,998.24
2019-04-19T09:44:58.386Z,998.18
2019-04-19T09:48:25.206Z,998.09
2019-04-19T09:49:11.823Z,998.12
2019-04-19T09:55:03.585Z,998.10
2019-04-19T09:57:38.463Z,998.14
2019-04-19T10:00:24.910Z,998.06
2019-04-19T10:03:19.838Z,998.04
2019-04-19T10:08:47.872Z,998.00
2019-04-19T10:09:22.249Z,998.01
2019-04-19T10:11:19.039Z,997.98
2019-04-19T10:12:17.936Z,997.97
2019-04-19T10:13:19.508Z,997.99
2019-04-19T10:14:19.241Z,997.89
2019-04-19T10:15:18.052Z,997.91
2019-04-19T10:16:18.734Z,997.95
2019-04-19T10:17:18.299Z,997.89
2019-04-19T10:18:18.639Z,997.95
2019-04-19T10:20:56.617Z,997.90
2019-04-19T10:23:49.849Z,997.94
2019-04-19T10:24:51.333Z,997.94
2019-04-19T10:27:09.128Z,997.99
2019-04-19T10:28:01.320Z,997.93
2019-04-19T10:29:55.513Z,997.94
2019-04-19T10:31:09.274Z,997.94
2019-04-19T10:32:48.751Z,997.95
2019-04-19T10:33:53.481Z,997.92
2019-04-19T10:35:41.255Z,997.93
2019-04-19T10:36:40.577Z,997.80
2019-04-19T10:38:33.886Z,997.86
2019-04-19T10:39:34.049Z,997.83
2019-04-19T10:41:27.411Z,997.83
2019-04-19T10:42:27.302Z,997.84
2019-04-19T10:43:27.396Z,997.84
2019-04-19T10:44:27.080Z,997.88
2019-04-19T10:46:20.867Z,997.86
2019-04-19T10:47:21.294Z,997.83
2019-04-19T10:49:33.483Z,997.85
2019-04-19T10:52:10.266Z,997.74
2019-04-19T10:53:10.371Z,997.76
2019-04-19T10:54:10.619Z,997.75
2019-04-19T10:55:10.628Z,997.73
2019-04-19T10:56:09.924Z,997.81
2019-04-19T10:57:10.409Z,997.74
2019-04-19T10:58:09.782Z,997.71
2019-04-19T11:01:13.703Z,997.75
2019-04-19T11:02:13.829Z,997.81
2019-04-19T11:04:07.224Z,997.76
2019-04-19T11:05:07.163Z,997.73
2019-04-19T11:07:00.256Z,997.73
2019-04-19T11:07:59.345Z,997.71
2019-04-19T11:09:00.494Z,997.74
2019-04-19T11:10:00.291Z,997.72
2019-04-19T11:10:59.824Z,997.80
2019-04-19T11:12:54.535Z,997.79
2019-04-19T11:13:54.094Z,997.74
2019-04-19T11:15:56.224Z,997.68
2019-04-19T11:16:55.600Z,997.66
2019-04-19T11:18:49.745Z,997.76
2019-04-19T11:20:00.941Z,997.67
2019-04-19T11:21:41.797Z,997.69
2019-04-19T11:22:43.766Z,997.77
2019-04-19T11:24:36.171Z,997.83
2019-04-19T11:25:35.794Z,997.75
2019-04-19T11:27:31.018Z,997.76
2019-04-19T11:28:29.160Z,997.73
2019-04-19T11:29:29.573Z,997.73
2019-04-19T11:31:23.653Z,997.75
2019-04-19T11:32:22.422Z,997.74
2019-04-19T11:34:17.195Z,997.69
2019-04-19T11:35:17.387Z,997.70
2019-04-19T11:37:11.886Z,997.69
2019-04-19T11:38:09.000Z,997.66
2019-04-19T11:40:03.519Z,997.59
2019-04-19T11:41:03.134Z,997.62
2019-04-19T11:42:57.303Z,997.59
2019-04-19T11:43:56.230Z,997.62
2019-04-19T11:45:49.833Z,997.70
2019-04-19T11:46:49.971Z,997.66
2019-04-19T11:48:43.711Z,997.72
2019-04-19T11:49:44.362Z,997.66
2019-04-19T11:51:37.465Z,997.69
2019-04-19T11:52:37.728Z,997.71
2019-04-19T11:54:38.747Z,997.74
2019-04-19T11:55:38.359Z,997.70
2019-04-19T11:57:32.607Z,997.67
2019-04-19T11:58:34.014Z,997.65
2019-04-19T12:00:25.091Z,997.58
2019-04-19T12:02:49.705Z,997.69
2019-04-19T12:03:50.027Z,997.64
2019-04-19T12:04:48.861Z,997.59
2019-04-19T12:05:48.863Z,997.61
2019-04-19T12:06:48.269Z,997.58
2019-04-19T12:07:50.865Z,997.66
2019-04-19T12:08:49.670Z,997.62
2019-04-19T12:11:36.047Z,997.62
2019-04-19T12:12:35.033Z,997.62
2019-04-19T12:13:36.637Z,997.56
2019-04-19T12:14:34.629Z,997.52
2019-04-19T12:15:37.845Z,997.41
2019-04-19T12:18:28.384Z,997.57
2019-04-19T12:19:36.184Z,997.61
2019-04-19T12:21:20.914Z,997.55
2019-04-19T12:22:21.272Z,997.59
2019-04-19T12:24:14.984Z,997.56
2019-04-19T12:25:15.417Z,997.57
2019-04-19T12:26:13.711Z,997.67
2019-04-19T12:27:14.234Z,997.65
2019-04-19T12:28:15.347Z,997.64
